Berville, Michigan
Current Conditions -  °F | °C
As of 1:13 PM on Friday 19 Dec 2014 (Local Time) from KD95 Reporting Station
Scattered Clouds Scattered Clouds  
Wind Chill: 29°   Ceiling: Unl
Heat Index: 29°   Visibility: 10mi
Dew Point: 20°   Wind: 0mph
Humidity: 69%   Direction: NA
Pressure: 30.25"   Gusts: NA
Location:  42.9384°N, 82.9255°W
Report Text: KD95 191813Z AUTO 00000KT 10SM SCT022 M02/M07 A3025 RMK AO2 T10171068
Loading
Personal Weather Stations






























Interactive Weather Map New forecast layout! Learn more

10-Day Weather Forecast

Advertisements
Track Severe Weather on mobile